Schedule Details

Flight Number: CPX408
Departure: Tulsa International Airport (KTUL) at N/A
Arrival: Chicago/Rockford International Airport (KRFD) at N/A
Route: TUL5 EOS J181 BAYLI J105 BDF


Current Weather Information
KTUL 180453Z 35008KT 10SM CLR M03/M08 A3027 RMK AO2 SLP255 T10331078
KRFD 180454Z 35010KT 3SM -SN BR OVC050 M07/M09 A3000 RMK AO2 SLP170 P0000 T10671089

Route Map